Pagina principală
METAR-TAF:

METAR-TAF

Aeroporturi :

Ranger Station

Stanley, Idaho, Statele Unite ale Americii

Latitudine: 44-12-31N, longitudine: 114-56-04W, elevație: 1980 m

Observații meteo curente

Raportul a fost făcut în urmă cu 19 de minute, la 16:51 UTC
Vânt 18 kt de la Sud cu rafale de până la 38 kt
Temperatură 17°C
Umiditate 34%
Presiune 1021 hPa

METAR: KSNT 281651Z AUTO 18018G38KT 17/01 A3015 RMK AO1 PK WND 17038/1651 SLP138 T01670006

Ora: 11:10 (17:10 UTC)


TAF: lipsă

Observații și prognoze meteo pentru peste 4.000 de aeroporturi (rapoarte METAR și TAF).

Stațiile disponibile sunt reprezentate pe hartă prin puncte galbene și roșii.

Țineți indicatorul mouse-ului pe punctul dorit pentru a vedea denumirea stației.

Apoi, faceți clic pentru a vedea observațiile și prognozele meteorologice.

Pentru a schimba harta: Pentru mărire, faceți clic pe butoanele verzi cu cruce neagră; pentru micșorare, pe butonul verde cu o liniuță; pentru hărți învecinate, pe săgețile verzi.


METAR-TAF: